• Join FlightAware (Why Join?)
  • Login
  • US Flag 
05:28AM EDT


 

Airport Tracker/Info


-or-


 

Live Flight TrackerFlight Track Log ✈ RPA3446 ✈ 30-Jun-2014 ✈ KCVG - KPHL

Flight Track Log - Related Links

Times and Time Zones

All times are in EDT time to prevent confusion due to time zone crossing. See the RPA3446 flight status page for this flight to view local times or setup timezone preferences in your user account.

Time Position Orientation Groundspeed Altitude Reporting Facility
EDT Latitude Longitude Course Direction KTS MPH feet Rate Location/Type
06:43PM 39.0333 -84.6500 44° Northeast 143 165 1,700  Level Cincinnati TRACON
06:44PM 39.0167 -84.5500 102° East 244 281 4,000 1,800 Climbing Cincinnati TRACON
06:45PM 39.0261 -84.5219 67° East 224 258 5,200 2,700 Climbing Indianapolis Center
06:46PM 38.9721 -84.3504 67° East  Level FlightAware Approximate
06:46PM 39.0536 -84.4281 69° East 273 314 8,200  Level Indianapolis Center
06:47PM 39.0151 -84.2290 63° Northeast  Level FlightAware Approximate
06:47PM 39.0817 -84.3256 71° East 295 339 10,800  Level Indianapolis Center
06:48PM 39.0791 -84.1262 44° Northeast  Level FlightAware Approximate
06:48PM 39.1158 -84.1836 73° East 340 391 13,000  Level Indianapolis Center
06:49PM 39.1497 -84.0561 71° East 368 423 15,200 2,340 Climbing Indianapolis Center
06:50PM 39.1814 -83.9261 73° East 378 435 17,800 2,220 Climbing Indianapolis Center
06:51PM 39.2144 -83.7953 72° East 382 440 19,800 1,680 Climbing Indianapolis Center
06:52PM 39.2475 -83.6606 72° East 391 450 21,300 1,380 Climbing Indianapolis Center
06:53PM 39.2825 -83.5167 73° East 413 475 22,700 1,320 Climbing Indianapolis Center
06:54PM 39.3256 -83.3389 73° East 433 498 24,100 1,200 Climbing Indianapolis Center
06:55PM 39.3628 -83.1853 73° East 447 514 25,300 1,200 Climbing Indianapolis Center
06:56PM 39.4003 -83.0269 73° East 459 528 26,600 1,260 Climbing Indianapolis Center
06:57PM 39.4386 -82.8694 72° East 459 528 27,900 1,080 Climbing Indianapolis Center
06:58PM 39.4764 -82.7083 73° East 463 533 28,900 1,080 Climbing Indianapolis Center
07:00PM 39.5461 -82.4150 73° East 475 547 30,900 1,200 Climbing Cleveland Center
07:01PM 39.5847 -82.2494 73° East 476 548 32,200 960 Climbing Cleveland Center
07:02PM 39.6208 -82.0875 74° East 475 547 33,000 360 Climbing Cleveland Center
07:03PM 39.6603 -81.9206 73° East 483 556 33,000  Level Cleveland Center
07:04PM 39.6989 -81.7500 74° East 490 564 33,000  Level Cleveland Center
07:05PM 39.7403 -81.5653 74° East 492 566 33,000  Level Cleveland Center
07:06PM 39.7781 -81.3961 74° East 492 566 33,000  Level Cleveland Center
07:07PM 39.8158 -81.2258 74° East 492 566 33,000  Level Cleveland Center
07:08PM 39.8533 -81.0572 74° East 491 565 33,000  Level Cleveland Center
07:09PM 39.8969 -80.8597 74° East 479 551 33,000  Level Cleveland Center
07:10PM 39.9325 -80.6939 74° East 479 551 33,000  Level Cleveland Center
07:11PM 39.9689 -80.5250 74° East 488 562 33,000  Level Cleveland Center
07:12PM 40.0028 -80.3606 75° East 480 552 33,000  Level Cleveland Center
07:13PM 40.0375 -80.1953 75° East 479 551 33,000  Level Cleveland Center
07:14PM 40.0725 -80.0294 75° East 479 551 33,000  Level Cleveland Center
07:15PM 40.1136 -79.8303 75° East 479 551 33,000  Level Cleveland Center
07:16PM 40.1486 -79.6656 74° East 479 551 33,000  Level Cleveland Center
07:17PM 40.1828 -79.4975 75° East 479 551 33,000  Level Cleveland Center
07:18PM 40.2161 -79.3314 75° East 479 551 33,000  Level Cleveland Center
07:19PM 40.2531 -79.1503 75° East 479 551 33,000 -120 Level Cleveland Center
07:20PM 40.2853 -78.9861 76° East 476 548 32,800 -480 Descending Cleveland Center
07:21PM 40.3158 -78.8194 76° East 476 548 32,100 -1,080 Descending Cleveland Center
07:22PM 40.3206 -78.6489 88° East 476 548 30,700 -1,860 Descending Cleveland Center
07:23PM 40.3489 -78.4492 79° East 475 547 28,300 -1,860 Descending Cleveland Center
07:24PM 40.3700 -78.2856 80° East 467 537 27,000 -660 Descending Cleveland Center
07:26PM 40.3708 -78.1189 90° East 464 534 27,000 -1,020 Level Cleveland Center
07:27PM 40.3628 -77.9567 94° East 458 527 25,000 -1,140 Descending Cleveland Center
07:28PM 40.3533 -77.7983 94° East 449 517 24,700 -660 Descending Cleveland Center
07:29PM 40.3425 -77.6406 95° East 443 510 23,700 -1,140 Descending Cleveland Center
07:30PM 40.3306 -77.4558 95° East 429 494 22,500 -1,020 Descending Cleveland Center
07:31PM 40.3211 -77.3267 95° East 427 491 21,700 -1,020 Descending New York Center
07:32PM 40.2947 -77.1636 102° East 415 478 20,600 -1,080 Descending New York Center
07:33PM 40.2647 -77.0219 105° East 409 471 19,600 -1,080 Descending New York Center
07:34PM 40.2372 -76.8728 104° East 414 476 18,500 -1,020 Descending New York Center
07:35PM 40.2089 -76.7342 105° East 404 465 17,600 -780 Descending New York Center
07:36PM 40.1856 -76.6153 104° East 387 445 17,000 -360 Descending New York Center
07:37PM 40.1589 -76.4800 104° East 381 438 17,000 -360 Level New York Center
07:38PM 40.1283 -76.3336 105° East 381 438 16,300 -1,380 Descending New York Center
07:39PM 40.1136 -76.1994 98° East 383 441 14,300 -1,920 Descending New York Center
07:40PM 40.1044 -76.0792 96° East 370 426 12,500 -1,800 Descending New York Center
07:41PM 40.0975 -75.9567 94° East 360 414 10,800 -1,740 Descending New York Center
07:42PM 40.0861 -75.8364 97° East 326 375 9,100 -1,440 Descending New York Center
07:43PM 40.0783 -75.7244 95° East 302 348 8,000 -840 Descending New York Center
07:44PM 40.0744 -75.6183 93° East 293 337 7,500 -1,020 Descending New York Center
07:45PM 40.0683 -75.5122 94° East 293 337 6,000 -780 Descending New York Center
07:46PM 40.0639 -75.4114 93° East 293 337 6,000  Level New York Center
07:47PM 40.0575 -75.3081 95° East 293 337 6,000  Level New York Center
07:48PM 40.0378 -75.2253 107° East 250 288 6,000 -240 Level New York Center
07:49PM 40.0133 -75.1533 114° Southeast 227 261 5,600 -960 Descending New York Center
07:50PM 39.9797 -75.1053 132° Southeast 212 244 4,200 -1,560 Descending New York Center
07:51PM 39.9256 -75.1044 179° South 179 206 2,500 -1,440 Descending New York Center
07:52PM 39.8994 -75.1353 222° Southwest 156 180 1,400 -960 Descending New York Center
07:53PM 39.8850 -75.1833 249° West 146 168 600 -540 Descending New York Center
07:54PM 39.8625 -75.2306 238° Southwest 141 162 400 -240 Descending New York Center
07:56PM 39.8667 -75.2333 247° West  Level FlightAware Approximate